Time;durP1;ratioP1;P1;durP2;ratioP2;P2;SDS_P1;SDS_P2;PMS_P1;PMS_P2;Temp;Humidity;BMP_temperature;BMP_pressure;BME280_temperature;BME280_humidity;BME280_pressure;Samples;Min_cycle;Max_cycle;Signal;HPM_P1;HPM_P2
2022/08/07 00:01:32;;;;;;;;;;;;;;;16.90;43.42;98701.22;4978399;28;19980;-77
2022/08/07 00:04:12;;;;;;;;;;;;;;;16.88;44.22;98695.25;4994117;28;19929;-78
2022/08/07 00:06:42;;;;;;;;;;;;;;;16.87;43.28;98698.31;4995260;28;19930;-77
2022/08/07 00:09:20;;;;;;;;;;;;;;;16.83;44.13;98700.94;4997478;28;19929;-77
2022/08/07 00:11:49;;;;;;;;;;;;;;;16.69;43.77;98692.13;4948732;28;20417;-77
2022/08/07 00:14:25;;;;;;;;;;;;;;;16.65;44.17;98689.22;4950402;28;20357;-77
2022/08/07 00:17:17;;;;;;;;;;;;;;;16.68;43.81;98685.03;4939403;29;19922;-77
2022/08/07 00:19:45;;;;;;;;;;;;;;;16.52;44.66;98684.81;4950598;28;19942;-77
2022/08/07 00:22:28;;;;;;;;;;;;;;;16.58;44.05;98688.16;4950714;28;19929;-76
2022/08/07 00:25:02;;;;;;;;;;;;;;;16.58;45.18;98688.97;4958760;28;19930;-77
2022/08/07 00:27:30;;;;;;;;;;;;;;;16.46;44.96;98691.63;4955525;28;19937;-77
2022/08/07 00:30:04;;;;;;;;;;;;;;;16.52;44.27;98694.97;4974033;28;19929;-77
2022/08/07 00:32:32;;;;;;;;;;;;;;;16.59;44.12;98690.56;4985397;28;19925;-77
2022/08/07 00:35:01;;;;;;;;;;;;;;;16.53;44.83;98696.56;4992693;28;19921;-77
2022/08/07 00:40:23;;;;;;;;;;;;;;;16.49;44.83;98696.44;4924717;29;20021;-77
2022/08/07 00:43:07;;;;;;;;;;;;;;;16.43;45.22;98692.28;4864292;29;19923;-77
2022/08/07 00:45:39;;;;;;;;;;;;;;;16.39;45.17;98696.81;4877420;29;19976;-77
2022/08/07 00:48:07;;;;;;;;;;;;;;;16.60;45.05;98705.09;4877647;29;19923;-77
2022/08/07 00:50:38;;;;;;;;;;;;;;;16.39;45.54;98694.84;4875891;29;19953;-77
2022/08/07 00:53:17;;;;;;;;;;;;;;;16.29;45.71;98691.69;4860647;29;19923;-77
2022/08/07 00:55:47;;;;;;;;;;;;;;;16.24;45.55;98698.97;4897365;29;20013;-77
2022/08/07 00:58:30;;;;;;;;;;;;;;;16.37;45.79;98688.91;4914139;29;19976;-77
2022/08/07 01:01:01;;;;;;;;;;;;;;;16.22;45.72;98681.25;4927717;28;19928;-77
2022/08/07 01:03:29;;;;;;;;;;;;;;;16.07;46.39;98696.28;4993090;28;20346;-77
2022/08/07 01:06:17;;;;;;;;;;;;;;;16.01;47.03;98692.13;4994853;28;19953;-77
2022/08/07 01:08:46;;;;;;;;;;;;;;;16.04;46.43;98691.47;4918503;29;19927;-77
2022/08/07 01:11:19;;;;;;;;;;;;;;;16.07;46.60;98688.06;4915491;29;20385;-77
2022/08/07 01:14:08;;;;;;;;;;;;;;;16.03;46.65;98692.59;4929521;29;19929;-77
2022/08/07 01:16:39;;;;;;;;;;;;;;;16.04;46.82;98686.00;4932122;29;19923;-77
2022/08/07 01:19:12;;;;;;;;;;;;;;;15.97;47.21;98688.41;4934345;29;19930;-77
2022/08/07 01:21:49;;;;;;;;;;;;;;;15.98;47.26;98687.31;4913259;29;19930;-77
2022/08/07 01:24:48;;;;;;;;;;;;;;;15.98;47.19;98681.84;4934732;29;19927;-77
2022/08/07 01:27:16;;;;;;;;;;;;;;;16.01;47.02;98683.09;4965527;28;19929;-77
2022/08/07 01:29:47;;;;;;;;;;;;;;;16.06;46.76;98683.72;4992275;28;20009;-77
2022/08/07 01:32:20;;;;;;;;;;;;;;;16.17;46.86;98681.41;4970604;28;19928;-77
2022/08/07 01:34:52;;;;;;;;;;;;;;;16.03;47.06;98683.56;4975926;28;20364;-77
2022/08/07 01:37:22;;;;;;;;;;;;;;;16.02;46.87;98676.47;4976492;28;19921;-77
2022/08/07 01:40:16;;;;;;;;;;;;;;;15.97;46.43;98691.16;4994468;28;20440;-77
2022/08/07 01:42:53;;;;;;;;;;;;;;;15.98;46.33;98684.56;4977328;28;19925;-77
2022/08/07 01:45:28;;;;;;;;;;;;;;;15.94;46.64;98680.88;4977243;28;19921;-77
2022/08/07 01:48:06;;;;;;;;;;;;;;;15.85;47.28;98691.84;4976474;28;19928;-78
2022/08/07 01:50:50;;;;;;;;;;;;;;;15.74;47.10;98687.84;4969995;28;20044;-77
2022/08/07 01:53:19;;;;;;;;;;;;;;;15.73;47.41;98690.94;4975834;28;20104;-77
2022/08/07 01:55:57;;;;;;;;;;;;;;;15.75;47.86;98688.66;4972114;28;19961;-77
2022/08/07 01:58:27;;;;;;;;;;;;;;;15.78;47.84;98688.81;4992909;28;19922;-77
2022/08/07 02:01:04;;;;;;;;;;;;;;;15.76;47.86;98690.25;4973567;28;20598;-77
2022/08/07 02:03:53;;;;;;;;;;;;;;;15.68;47.87;98684.47;4996781;28;19927;-77
2022/08/07 02:06:22;;;;;;;;;;;;;;;15.70;47.88;98690.44;5000010;28;19925;-77
2022/08/07 02:09:03;;;;;;;;;;;;;;;15.70;47.82;98687.69;4983600;28;19929;-77
2022/08/07 02:11:35;;;;;;;;;;;;;;;15.67;48.24;98684.81;4975261;28;19922;-77
2022/08/07 02:14:25;;;;;;;;;;;;;;;15.66;48.15;98688.69;4977795;28;20345;-77
2022/08/07 02:17:06;;;;;;;;;;;;;;;15.62;48.17;98688.50;4975622;28;19928;-76
2022/08/07 02:19:36;;;;;;;;;;;;;;;15.63;47.82;98676.44;4980367;28;19922;-77
2022/08/07 02:22:25;;;;;;;;;;;;;;;15.64;47.59;98672.56;4973982;28;19949;-77
2022/08/07 02:24:54;;;;;;;;;;;;;;;15.57;48.04;98679.66;4936569;29;19965;-77
2022/08/07 02:27:23;;;;;;;;;;;;;;;15.59;47.92;98674.63;4919694;29;20028;-77
2022/08/07 02:29:52;;;;;;;;;;;;;;;15.51;47.91;98676.28;4922698;29;19977;-77
2022/08/07 02:32:27;;;;;;;;;;;;;;;15.46;48.82;98673.72;4872954;29;19924;-77
2022/08/07 02:34:57;;;;;;;;;;;;;;;15.49;48.63;98677.72;4873004;29;20030;-77
2022/08/07 02:37:53;;;;;;;;;;;;;;;15.59;47.82;98664.50;4876037;29;19924;-77
2022/08/07 02:40:24;;;;;;;;;;;;;;;15.40;48.29;98677.75;4877379;29;20313;-77
2022/08/07 02:43:03;;;;;;;;;;;;;;;15.40;48.03;98666.78;4878557;29;19975;-77
2022/08/07 02:45:37;;;;;;;;;;;;;;;15.32;48.76;98665.66;4895464;29;19987;-77
2022/08/07 02:48:25;;;;;;;;;;;;;;;15.34;49.29;98659.84;4900164;29;19959;-77
2022/08/07 02:50:56;;;;;;;;;;;;;;;15.28;49.21;98656.47;4951453;28;19925;-77
2022/08/07 02:53:28;;;;;;;;;;;;;;;15.34;49.09;98665.34;4975489;28;19922;-77
2022/08/07 02:55:58;;;;;;;;;;;;;;;15.22;49.10;98651.50;4996862;28;19972;-78
2022/08/07 02:58:32;;;;;;;;;;;;;;;15.33;49.52;98655.50;4983344;28;19953;-77
2022/08/07 03:01:02;;;;;;;;;;;;;;;15.35;48.84;98647.81;4985056;28;19940;-78
2022/08/07 03:03:33;;;;;;;;;;;;;;;15.35;48.77;98654.06;4980252;28;19922;-77
2022/08/07 03:06:20;;;;;;;;;;;;;;;15.34;49.45;98647.00;4981175;28;20368;-77
2022/08/07 03:08:52;;;;;;;;;;;;;;;15.25;49.29;98653.59;4990747;28;20307;-77
2022/08/07 03:11:24;;;;;;;;;;;;;;;15.19;49.62;98647.50;4992965;28;19929;-77
2022/08/07 03:16:49;;;;;;;;;;;;;;;15.20;49.27;98646.38;4990900;28;19951;-77
2022/08/07 03:19:17;;;;;;;;;;;;;;;15.14;49.31;98639.44;4983496;28;19964;-76
2022/08/07 03:21:45;;;;;;;;;;;;;;;15.12;49.70;98639.75;4999310;28;19922;-76
2022/08/07 03:24:43;;;;;;;;;;;;;;;15.16;49.49;98642.66;4987760;28;19926;-76
2022/08/07 03:27:12;;;;;;;;;;;;;;;15.08;49.68;98644.28;4996059;28;19929;-76
2022/08/07 03:29:46;;;;;;;;;;;;;;;15.03;49.91;98649.91;4971537;28;20381;-76
2022/08/07 03:32:23;;;;;;;;;;;;;;;15.14;49.49;98643.00;4963613;28;20020;-76
2022/08/07 03:34:51;;;;;;;;;;;;;;;15.04;49.16;98646.03;4980949;28;19925;-76
2022/08/07 03:37:55;;;;;;;;;;;;;;;14.89;49.58;98643.78;4963818;28;19922;-76
2022/08/07 03:40:27;;;;;;;;;;;;;;;14.96;49.88;98641.38;4979322;28;20432;-78
2022/08/07 03:43:01;;;;;;;;;;;;;;;14.96;49.65;98646.84;4960645;28;19926;-78
2022/08/07 03:45:33;;;;;;;;;;;;;;;15.02;49.67;98653.78;4963084;28;19929;-78
2022/08/07 03:48:06;;;;;;;;;;;;;;;14.96;49.96;98652.31;4977705;28;19929;-78
2022/08/07 03:50:37;;;;;;;;;;;;;;;14.93;50.06;98652.97;4980927;28;19921;-78
2022/08/07 03:53:05;;;;;;;;;;;;;;;15.05;50.08;98652.31;4982436;28;19926;-78
2022/08/07 03:55:35;;;;;;;;;;;;;;;14.94;49.59;98644.44;4959477;28;19972;-78
2022/08/07 03:58:22;;;;;;;0.75;0.17;;;;;;;14.85;49.67;98640.09;4961011;28;20398;-78
2022/08/07 04:01:14;;;;;;;1.30;0.30;;;;;;;14.87;49.40;98649.59;4959305;28;20051;-78
2022/08/07 04:03:45;;;;;;;;;;;;;;;14.87;50.08;98643.31;4967066;28;20441;-78
2022/08/07 04:06:19;;;;;;;;;;;;;;;14.94;49.81;98649.09;4958811;28;19922;-78
2022/08/07 04:09:03;;;;;;;;;;;;;;;15.25;49.14;98648.13;4958627;28;19922;-78
2022/08/07 04:11:31;;;;;;;;;;;;;;;15.02;49.25;98650.22;4963027;28;20300;-78
2022/08/07 04:14:22;;;;;;;;;;;;;;;14.96;49.93;98651.50;4973872;28;20357;-78
2022/08/07 04:17:05;;;;;;;;;;;;;;;15.05;49.81;98650.38;4961072;28;19985;-79
2022/08/07 04:19:47;;;;;;;;;;;;;;;15.01;49.78;98646.69;4956919;28;19928;-79
2022/08/07 04:22:23;;;;;;;;;;;;;;;14.91;50.22;98660.69;4975626;28;19925;-78
2022/08/07 04:24:56;;;;;;;;;;;;;;;14.86;49.55;98658.09;4958949;28;19922;-79
2022/08/07 04:27:24;;;;;;;;;;;;;;;14.88;49.72;98661.34;4959542;28;19925;-78
2022/08/07 04:29:58;;;;;;;;;;;;;;;14.92;49.73;98662.31;4976567;28;20699;-78
2022/08/07 04:32:47;;;;;;;;;;;;;;;14.97;49.56;98667.63;4978825;28;19952;-78
2022/08/07 04:35:17;;;;;;;;;;;;;;;14.88;50.21;98666.81;4982629;28;20350;-79
2022/08/07 04:37:47;;;;;;;;;;;;;;;14.89;50.02;98666.47;4991742;28;20340;-79
2022/08/07 04:40:39;;;;;;;;;;;;;;;14.95;49.94;98672.59;4982255;28;19922;-86
2022/08/07 04:43:18;;;;;;;;;;;;;;;14.86;50.10;98669.03;5004121;28;19921;-78
2022/08/07 04:45:53;;;;;;;;;;;;;;;14.75;50.12;98673.22;4973961;28;19922;-79
2022/08/07 04:48:28;;;;;;;;;;;;;;;14.81;50.21;98669.22;4992884;28;19921;-79
2022/08/07 04:50:58;;;;;;;;;;;;;;;15.09;49.76;98673.25;4977088;28;20079;-79
2022/08/07 04:53:27;;;;;;;;;;;;;;;14.98;50.29;98676.63;4995337;28;19922;-79
2022/08/07 04:56:16;;;;;;;;;;;;;;;14.76;50.66;98677.59;4979506;28;19921;-80
2022/08/07 04:59:06;;;;;;;;;;;;;;;14.85;50.31;98676.44;4974403;28;20253;-80
2022/08/07 05:02:12;;;;;;;;;;;;;;;14.89;50.62;98682.91;4992987;28;20002;-79
2022/08/07 05:04:47;;;;;;;;;;;;;;;14.80;51.69;98687.53;4985704;28;19993;-79
2022/08/07 05:07:21;;;;;;;;;;;;;;;14.91;52.03;98677.09;4985932;28;19921;-78
2022/08/07 05:09:56;;;;;;;;;;;;;;;15.00;50.92;98679.84;4982303;28;19921;-78
2022/08/07 05:12:30;;;;;;;;;;;;;;;14.96;51.64;98681.59;4978144;28;19926;-78
2022/08/07 05:15:14;;;;;;;;;;;;;;;15.14;50.31;98670.34;4995677;28;20040;-80
2022/08/07 05:17:51;;;;;;;;;;;;;;;15.13;50.60;98673.44;4981538;28;19928;-80
2022/08/07 05:20:23;;;;;;;;;;;;;;;15.03;50.95;98673.75;4988996;28;19922;-84
2022/08/07 05:22:55;;;;;;;;;;;;;;;15.13;50.25;98670.69;4981937;28;19926;-79
2022/08/07 05:25:23;;;;;;;;;;;;;;;15.09;50.54;98666.97;4975825;28;19921;-79
2022/08/07 05:28:29;;;;;;;;;;;;;;;15.11;51.20;98668.25;4998873;28;20101;-79
2022/08/07 05:30:58;;;;;;;;;;;;;;;15.19;51.33;98670.19;4972450;28;19926;-79
2022/08/07 05:33:34;;;;;;;;;;;;;;;15.23;51.11;98666.78;4972428;28;21256;-80
2022/08/07 05:36:07;;;;;;;;;;;;;;;15.29;49.71;98666.31;4976309;28;19930;-79
2022/08/07 05:38:39;;;;;;;;;;;;;;;15.30;50.71;98678.06;4978234;28;19929;-79
2022/08/07 05:41:33;;;;;;;;;;;;;;;15.43;50.26;98677.88;5000582;28;19964;-76
2022/08/07 05:44:21;;;;;;;;;;;;;;;15.42;50.47;98675.47;4989076;28;19989;-77
2022/08/07 05:46:59;;;;;;;;;;;;;;;15.50;50.22;98671.94;4996138;28;19988;-78
2022/08/07 05:49:30;;;;;;;;;;;;;;;15.53;50.26;98678.69;4998318;28;19921;-78
2022/08/07 05:52:08;;;;;;;;;;;;;;;15.67;50.55;98677.41;4981556;28;19950;-79
2022/08/07 05:54:39;;;;;;;;;;;;;;;15.72;49.63;98681.91;4980208;28;20272;-78
2022/08/07 05:57:20;;;;;;;;;;;;;;;15.79;50.21;98678.66;4994040;28;19922;-78
2022/08/07 05:59:48;;;;;;;;;;;;;;;16.10;47.71;98679.19;4961260;28;19929;-73
2022/08/07 06:02:28;;;;;;;;;;;;;;;16.16;47.72;98677.88;4998826;28;20288;-75
2022/08/07 06:05:02;;;;;;;;;;;;;;;16.09;48.58;98674.06;4992463;28;19930;-77
2022/08/07 06:07:31;;;;;;;;;;;;;;;16.09;48.20;98676.78;4989672;28;19954;-76
2022/08/07 06:10:19;;;;;;;;;;;;;;;16.15;47.67;98679.03;4997544;28;19944;-73
2022/08/07 06:12:47;;;;;;;;;;;;;;;16.30;47.42;98685.88;4981116;28;19922;-77
2022/08/07 06:15:16;;;;;;;;;;;;;;;16.34;47.24;98672.31;4983270;28;20015;-76
2022/08/07 06:17:48;;;;;;;;;;;;;;;16.35;47.65;98673.91;4939026;29;19927;-76
2022/08/07 06:20:19;;;;;;;;;;;;;;;16.50;47.41;98678.84;4922295;29;19955;-78
2022/08/07 06:22:56;;;;;;;;;;;;;;;16.59;47.18;98684.28;4935899;28;20017;-78
2022/08/07 06:25:36;;;;;;;;;;;;;;;16.78;46.23;98676.44;4933577;29;20285;-75
2022/08/07 06:28:29;;;;;;;;;;;;;;;16.71;47.18;98676.94;4927418;29;19923;-76
2022/08/07 06:30:57;;;;;;;;;;;;;;;16.79;47.45;98678.06;4931863;29;20390;-80
2022/08/07 06:33:32;;;;;;;;;;;;;;;16.83;47.66;98683.66;4932253;29;20059;-74
2022/08/07 06:36:02;;;;;;;;;;;;;;;16.91;46.81;98685.56;4966533;28;19921;-74
2022/08/07 06:38:45;;;;;;;;;;;;;;;17.00;47.39;98683.56;4975747;28;19921;-79
2022/08/07 06:41:28;;;;;;;;;;;;;;;17.20;46.86;98687.41;4975301;28;19929;-81
2022/08/07 06:44:17;;;;;;;;;;;;;;;17.29;46.13;98694.44;4970019;28;19922;-80
2022/08/07 06:46:49;;;;;;;;;;;;;;;17.52;45.10;98683.06;4969226;28;19929;-89
2022/08/07 06:49:20;;;;;;;;;;;;;;;17.40;45.94;98685.78;4969481;28;19955;-80
2022/08/07 06:51:51;;;;;;;;;;;;;;;17.42;46.24;98689.81;4975419;28;19922;-80
2022/08/07 06:54:24;;;;;;;;;;;;;;;17.55;46.58;98693.41;4978178;28;19960;-81
2022/08/07 06:57:13;;;;;;;;;;;;;;;17.62;47.35;98687.34;4998332;28;19928;-81
2022/08/07 06:59:42;;;;;;;;;;;;;;;17.69;47.35;98682.94;4997933;28;19960;-82
2022/08/07 07:02:32;;;;;;;;;;;;;;;17.93;44.84;98687.69;4972475;28;19925;-82
2022/08/07 07:05:21;;;;;;;;;;;;;;;17.92;44.36;98679.78;4977304;28;19976;-84
2022/08/07 07:08:11;;;;;;;;;;;;;;;18.02;44.90;98684.84;5006671;28;19928;-81
2022/08/07 07:10:48;;;;;;;;;;;;;;;18.09;44.98;98681.53;4996679;28;19988;-78
2022/08/07 07:13:27;;;;;;;;;;;;;;;18.23;45.64;98685.56;4975071;28;19964;-78
2022/08/07 07:16:16;;;;;;;;;;;;;;;18.40;44.13;98689.25;4974646;28;19921;-86
2022/08/07 07:18:47;;;;;;;;;;;;;;;18.41;44.15;98685.34;4999445;28;19985;-80
2022/08/07 07:21:19;;;;;;;1.87;0.60;;;;;;;18.38;45.18;98688.78;4991885;28;20841;-79
2022/08/07 07:23:55;;;;;;;;;;;;;;;18.57;45.31;98678.78;4993367;28;20049;-80
2022/08/07 07:26:33;;;;;;;;;;;;;;;18.63;44.01;98675.81;4967859;28;19926;-80
2022/08/07 07:29:08;;;;;;;;;;;;;;;18.64;45.59;98677.41;4992963;28;19980;-79
2022/08/07 07:31:56;;;;;;;;;;;;;;;18.79;44.13;98672.03;4983293;28;20328;-80
2022/08/07 07:37:17;;;;;;;;;;;;;;;18.99;43.72;98672.22;4929851;29;19927;-76
2022/08/07 07:40:08;;;;;;;;;;;;;;;19.07;43.43;98671.28;4910834;29;19923;-81
2022/08/07 07:43:02;;;;;;;;;;;;;;;19.18;43.40;98658.63;4931930;29;20318;-84
2022/08/07 07:45:42;;;;;;;;;;;;;;;19.18;43.32;98668.84;4929348;29;20018;-83
2022/08/07 07:48:30;;;;;;;;;;;;;;;19.17;43.06;98667.22;4914126;29;19922;-83
2022/08/07 07:51:03;;;;;;;;;;;;;;;19.21;43.06;98660.66;4928767;29;20421;-83
2022/08/07 07:53:34;;;;;;;;;;;;;;;19.38;43.09;98651.28;4918179;29;19922;-83
2022/08/07 07:56:03;;;;;;;;;;;;;;;19.51;42.82;98661.13;4983611;28;19960;-84
2022/08/07 07:58:32;;;;;;;;;;;;;;;19.66;42.29;98656.03;5007713;28;19929;-84
2022/08/07 08:01:05;;;;;;;;;;;;;;;19.85;42.11;98648.66;4909648;29;19923;-84
2022/08/07 08:03:54;;;;;;;;;;;;;;;20.04;41.72;98645.22;4907916;29;19938;-84
2022/08/07 08:06:39;;;;;;;4.45;1.05;;;;;;;20.07;40.82;98635.41;4923748;29;20932;-83
2022/08/07 08:09:23;;;;;;;3.40;0.83;;;;;;;20.05;40.87;98635.78;4929755;29;20436;-84
2022/08/07 08:12:02;;;;;;;2.58;0.90;;;;;;;20.07;40.92;98621.63;4900412;29;20469;-84
2022/08/07 08:17:26;;;;;;;;;;;;;;;20.27;39.03;98634.34;4900126;29;20052;-85
2022/08/07 08:20:39;;;;;;;;;;;;;;;20.48;38.94;98638.78;4986211;28;19929;-83
2022/08/07 08:28:54;;;;;;;;;;;;;;;20.62;36.87;98633.59;4977756;28;20060;-83
2022/08/07 08:31:28;;;;;;;;;;;;;;;20.77;36.98;98649.31;5000774;28;20391;-82
2022/08/07 08:33:57;;;;;;;;;;;;;;;20.90;36.75;98645.25;4997628;28;19936;-83
2022/08/07 08:36:28;;;;;;;;;;;;;;;20.94;35.85;98637.06;4985213;28;19937;-81
2022/08/07 08:38:58;;;;;;;;;;;;;;;20.96;36.90;98645.78;4997554;28;19937;-84
2022/08/07 08:41:27;;;;;;;;;;;;;;;20.95;36.80;98638.66;4979046;28;20318;-82
2022/08/07 08:44:02;;;;;;;;;;;;;;;20.99;37.13;98633.22;4988001;28;19929;-78
2022/08/07 08:46:32;;;;;;;;;;;;;;;20.98;36.93;98634.34;4979381;28;19933;-78
2022/08/07 08:49:02;;;;;;;;;;;;;;;21.11;37.46;98638.59;4996172;28;19945;-78
2022/08/07 08:51:31;;;;;;;;;;;;;;;21.13;36.28;98633.50;4993138;28;19926;-80
2022/08/07 08:54:20;;;;;;;;;;;;;;;21.16;35.65;98632.78;4993170;28;20368;-77
2022/08/07 08:56:48;;;;;;;;;;;;;;;21.35;36.04;98627.25;4996193;28;19926;-74
2022/08/07 08:59:24;;;;;;;;;;;;;;;21.36;35.10;98625.28;4997694;28;20017;-78
2022/08/07 09:02:00;;;;;;;;;;;;;;;21.19;34.58;98621.78;4983560;28;19933;-77
2022/08/07 09:04:30;;;;;;;;;;;;;;;21.30;34.80;98622.03;4996390;28;19933;-78
2022/08/07 09:06:59;;;;;;;;;;;;;;;21.27;34.96;98625.50;4992243;28;19953;-77
2022/08/07 09:09:32;;;;;;;;;;;;;;;21.29;34.78;98625.91;4994218;28;19964;-76
2022/08/07 09:12:10;;;;;;;;;;;;;;;21.25;35.14;98618.72;4978870;28;19932;-77
2022/08/07 09:15:18;;;;;;;;;;;;;;;21.31;35.25;98629.16;5004087;28;19925;-77
2022/08/07 09:18:12;;;;;;;;;;;;;;;21.47;35.23;98626.31;4992994;28;20001;-77
2022/08/07 09:20:45;;;;;;;;;;;;;;;21.57;35.05;98614.66;4996208;28;19932;-77
2022/08/07 09:23:28;;;;;;;;;;;;;;;21.63;33.36;98615.94;4974632;28;20373;-76
2022/08/07 09:26:17;;;;;;;;;;;;;;;21.54;34.93;98614.59;4972489;28;19972;-76
2022/08/07 09:28:52;;;;;;;;;;;;;;;21.62;34.22;98613.53;4993278;28;19929;-76
2022/08/07 09:31:43;;;;;;;;;;;;;;;21.50;33.61;98624.78;4994156;28;19946;-75
2022/08/07 09:34:16;;;;;;;;;;;;;;;21.61;34.07;98617.47;4995697;28;19925;-77
2022/08/07 09:36:52;;;;;;;;;;;;;;;21.63;34.06;98617.91;5005846;28;19984;-77
2022/08/07 09:39:23;;;;;;;;;;;;;;;21.69;33.35;98611.72;4980564;28;19957;-75
2022/08/07 09:42:16;;;;;;;;;;;;;;;21.68;34.48;98601.03;4997202;28;20032;-76
2022/08/07 09:44:53;;;;;;;;;;;;;;;21.74;34.92;98598.75;4978980;28;19925;-76
2022/08/07 09:47:46;;;;;;;;;;;;;;;21.86;33.89;98593.81;4987959;28;20021;-76
2022/08/07 09:50:31;;;;;;;;;;;;;;;21.84;33.92;98598.94;4974993;28;19969;-75
2022/08/07 09:52:59;;;;;;;;;;;;;;;21.99;33.12;98597.19;4996896;28;19965;-76
2022/08/07 09:55:30;;;;;;;;;;;;;;;22.02;33.96;98595.66;4979050;28;19929;-78
2022/08/07 09:58:37;;;;;;;;;;;;;;;21.95;33.95;98591.63;4999277;28;19933;-77
2022/08/07 10:01:07;;;;;;;;;;;;;;;21.90;33.01;98596.66;5000391;28;19950;-77
2022/08/07 10:04:00;;;;;;;;;;;;;;;21.96;32.82;98593.22;4985421;28;19926;-76
2022/08/07 10:06:52;;;;;;;;;;;;;;;22.09;32.90;98593.00;4976236;28;20016;-76
2022/08/07 10:09:36;;;;;;;;;;;;;;;22.14;30.47;98592.72;4975927;28;19925;-77
2022/08/07 10:12:13;;;;;;;;;;;;;;;22.18;32.35;98588.03;5001872;28;19933;-78
2022/08/07 10:15:19;;;;;;;;;;;;;;;22.12;32.21;98573.72;4990237;28;19933;-77
2022/08/07 10:17:56;;;;;;;;;;;;;;;22.09;31.90;98570.88;4973413;28;20006;-74
2022/08/07 10:21:02;;;;;;;;;;;;;;;22.28;31.69;98570.81;4987003;28;19926;-74
2022/08/07 10:23:48;;;;;;;;;;;;;;;22.11;31.65;98568.56;4986749;28;19948;-74
2022/08/07 10:26:35;;;;;;;;;;;;;;;22.25;32.19;98560.47;4995479;28;20463;-74
2022/08/07 10:29:08;;;;;;;;;;;;;;;22.35;32.45;98554.28;4980085;28;19932;-74
2022/08/07 10:31:39;;;;;;;;;;;;;;;22.34;30.85;98552.69;4997559;28;20284;-74
2022/08/07 10:34:08;;;;;;;;;;;;;;;22.45;31.12;98553.63;4969876;28;20025;-75
2022/08/07 10:37:07;;;;;;;;;;;;;;;22.56;30.91;98550.22;4978492;28;19930;-78
2022/08/07 10:39:43;;;;;;;;;;;;;;;22.49;32.48;98548.97;4976115;28;19933;-78
2022/08/07 10:45:26;;;;;;;;;;;;;;;22.45;31.11;98545.34;4968517;28;19929;-77
2022/08/07 10:48:37;;;;;;;;;;;;;;;22.39;31.05;98533.00;4992785;28;19965;-86
2022/08/07 10:51:07;;;;;;;;;;;;;;;22.58;31.85;98534.81;4990832;28;19976;-76
2022/08/07 10:53:44;;;;;;;;;;;;;;;22.67;30.35;98531.78;4977204;28;19926;-76
2022/08/07 10:56:15;;;;;;;;;;;;;;;22.81;30.45;98537.50;4975108;28;19933;-77
2022/08/07 10:58:51;;;;;;;;;;;;;;;22.74;32.16;98531.84;4988721;28;19925;-77
2022/08/07 11:01:35;;;;;;;;;;;;;;;22.88;31.15;98532.06;4973644;28;20460;-77
2022/08/07 11:04:24;;;;;;;;;;;;;;;22.81;31.77;98531.97;4992359;28;19932;-77
2022/08/07 11:07:01;;;;;;;;;;;;;;;22.92;29.95;98518.25;4977686;28;19929;-77
2022/08/07 11:09:30;;;;;;;;;;;;;;;22.88;29.70;98518.22;4984368;28;19957;-77
2022/08/07 11:15:13;;;;;;;;;;;;;;;23.09;31.04;98509.34;4917376;29;19927;-77
2022/08/07 11:17:48;;;;;;;;;;;;;;;22.92;30.67;98499.66;4919942;29;19927;-76
2022/08/07 11:20:18;;;;;;;;;;;;;;;22.98;31.29;98500.13;4916223;29;19927;-77
2022/08/07 11:22:49;;;;;;;;;;;;;;;23.22;30.73;98502.38;4902031;29;19928;-77
2022/08/07 11:25:22;;;;;;;;;;;;;;;23.27;30.43;98499.22;4916194;29;20477;-77
2022/08/07 11:27:54;;;;;;;;;;;;;;;23.21;30.91;98491.63;4914980;29;20003;-77
2022/08/07 11:30:34;;;;;;;;;;;;;;;23.08;29.92;98496.66;4913968;29;20385;-77
2022/08/07 11:33:35;;;;;;;;;;;;;;;23.09;30.05;98497.44;4961371;28;20431;-77
2022/08/07 11:36:27;;;;;;;;;;;;;;;23.21;29.58;98491.63;4997722;28;19933;-78
2022/08/07 11:38:59;;;;;;;;;;;;;;;23.23;29.25;98492.84;4996821;28;19930;-78
2022/08/07 11:41:28;;;;;;;;;;;;;;;23.20;29.82;98481.72;5001352;28;19926;-78
2022/08/07 11:44:19;;;;;;;;;;;;;;;23.30;29.48;98485.78;4998411;28;19981;-79
2022/08/07 11:46:48;;;;;;;;;;;;;;;23.33;28.93;98491.38;5000714;28;19925;-77
2022/08/07 11:49:40;;;;;;;;;;;;;;;23.37;27.86;98486.63;4976748;28;19953;-77
2022/08/07 11:52:42;;;;;;;;;;;;;;;23.40;27.45;98477.56;4995053;28;19926;-76
2022/08/07 11:55:12;;;;;;;;;;;;;;;23.36;27.96;98481.47;4998642;28;19952;-77
2022/08/07 11:58:02;;;;;;;;;;;;;;;23.27;28.75;98477.03;4977833;28;19980;-77
2022/08/07 12:03:49;;;;;;;;;;;;;;;23.25;28.07;98478.59;4984827;28;20009;-76
2022/08/07 12:06:24;;;;;;;;;;;;;;;23.29;26.82;98478.66;4975701;28;19938;-76
2022/08/07 12:09:07;;;;;;;;;;;;;;;23.18;27.54;98475.78;4985627;28;19932;-78
2022/08/07 12:12:04;;;;;;;;;;;;;;;23.28;26.80;98466.78;4996827;28;19944;-77
2022/08/07 12:14:42;;;;;;;;;;;;;;;23.24;27.81;98474.25;4995548;28;19929;-77
2022/08/07 12:17:12;;;;;;;;;;;;;;;23.22;29.50;98469.09;5000672;28;20387;-77
2022/08/07 12:19:51;;;;;;;;;;;;;;;23.34;27.25;98470.78;4995116;28;19973;-77
2022/08/07 12:22:34;;;;;;;;;;;;;;;23.41;28.84;98462.50;5004754;28;20142;-77
2022/08/07 12:28:41;;;;;;;;;;;;;;;23.52;26.50;98465.38;4997166;28;19926;-77
2022/08/07 12:31:14;;;;;;;;;;;;;;;23.64;29.42;98455.97;4919127;29;20003;-77
2022/08/07 12:33:45;;;;;;;;;;;;;;;23.59;26.25;98459.88;4913149;29;20374;-77
2022/08/07 12:36:23;;;;;;;;;;;;;;;23.55;27.09;98456.31;4918241;29;19927;-77
2022/08/07 12:39:02;;;;;;;;;;;;;;;23.63;26.82;98459.94;4921978;28;19931;-77
2022/08/07 12:41:33;;;;;;;;;;;;;;;23.60;27.13;98452.38;4921742;29;19959;-81
2022/08/07 12:44:16;;;;;;;;;;;;;;;23.71;26.68;98453.28;4912284;29;19994;-76
2022/08/07 12:46:50;;;;;;;;;;;;;;;23.84;24.21;98451.78;4923142;29;19951;-77
2022/08/07 12:49:24;;;;;;;;;;;;;;;23.83;23.94;98444.63;4902029;29;19969;-75
2022/08/07 12:52:12;;;;;;;;;;;;;;;23.88;26.16;98455.38;4931680;29;19998;-77
2022/08/07 12:54:49;;;;;;;;;;;;;;;23.87;29.39;98436.34;4943868;29;19933;-77
2022/08/07 12:57:22;;;;;;;;;;;;;;;23.94;29.04;98436.38;4909455;29;19935;-75
2022/08/07 12:59:50;;;;;;;;;;;;;;;23.99;26.70;98439.59;4933469;29;20325;-75
2022/08/07 13:02:29;;;;;;;;;;;;;;;24.04;26.43;98435.66;4918543;29;20472;-80
2022/08/07 13:05:09;;;;;;;;;;;;;;;24.07;25.89;98428.50;4931558;29;19988;-78
2022/08/07 13:08:08;;;;;;;;;;;;;;;24.04;28.54;98432.88;4956615;28;19948;-77
2022/08/07 13:11:04;;;;;;;;;;;;;;;24.19;25.73;98420.66;4954490;28;19933;-77
2022/08/07 13:13:35;;;;;;;;;;;;;;;24.19;25.49;98429.00;4972558;28;19925;-78
2022/08/07 13:19:12;;;;;;;;;;;;;;;24.22;23.55;98413.53;4992539;28;19932;-77
2022/08/07 13:21:50;;;;;;;;;;;;;;;24.21;24.64;98414.72;4994695;28;19926;-77
2022/08/07 13:24:25;;;;;;;;;;;;;;;24.17;23.51;98405.56;4975795;28;20384;-77
2022/08/07 13:26:58;;;;;;;;;;;;;;;24.06;25.67;98399.97;4975509;28;19934;-77
2022/08/07 13:29:27;;;;;;;;;;;;;;;24.23;25.47;98409.56;4976461;28;20115;-77
2022/08/07 13:31:57;;;;;;;;;;;;;;;24.27;26.86;98405.59;4991600;28;19926;-77
2022/08/07 13:34:33;;;;;;;;;;;;;;;24.29;25.95;98402.47;4993323;28;19926;-76
2022/08/07 13:37:04;;;;;;;;;;;;;;;24.25;24.36;98401.66;4975707;28;19937;-78
2022/08/07 13:39:39;;;;;;;;;;;;;;;24.22;24.87;98407.97;4986989;28;19926;-78
2022/08/07 13:42:27;;;;;;;;;;;;;;;24.37;24.60;98398.53;4988947;28;19980;-78
2022/08/07 13:44:56;;;;;;;;;;;;;;;24.44;24.87;98390.22;4984706;28;20021;-78
2022/08/07 13:47:44;;;;;;;;;;;;;;;24.37;23.32;98383.88;4992480;28;19961;-78
2022/08/07 13:50:32;;;;;;;;;;;;;;;24.28;24.80;98379.44;4991261;28;19934;-79
2022/08/07 13:53:15;;;;;;;;;;;;;;;24.22;24.05;98377.44;4991452;28;19944;-79
2022/08/07 13:55:45;;;;;;;;;;;;;;;24.18;24.89;98379.38;4980147;28;20017;-78
2022/08/07 14:01:08;;;;;;;;;;;;;;;24.43;24.52;98373.97;4990870;28;20021;-78
2022/08/07 14:03:39;;;;;;;;;;;;;;;24.51;25.51;98372.81;4991255;28;20030;-78
2022/08/07 14:06:30;;;;;;;;;;;;;;;24.56;26.21;98362.09;4971938;28;19930;-78
2022/08/07 14:09:00;;;;;;;;;;;;;;;24.45;23.75;98366.03;4993622;28;19973;-77
2022/08/07 14:11:30;;;;;;;;;;;;;;;24.36;23.23;98358.09;4986489;28;19926;-78
2022/08/07 14:14:18;;;;;;;;;;;;;;;24.31;24.27;98356.44;4976150;28;19926;-78
2022/08/07 14:16:47;;;;;;;;;;;;;;;24.45;26.04;98347.41;4990604;28;19925;-77